Time;durP1;ratioP1;P1;durP2;ratioP2;P2;SDS_P1;SDS_P2;PMS_P1;PMS_P2;Temp;Humidity;BMP_temperature;BMP_pressure;BME280_temperature;BME280_humidity;BME280_pressure;Samples;Min_cycle;Max_cycle;Signal;HPM_P1;HPM_P2
2023/10/13 00:02:31;;;;;;;5.25;2.72;;;16.30;99.90;;;;;;8257694;28;20084;-88
2023/10/13 00:06:31;;;;;;;4.93;2.20;;;16.10;99.90;;;;;;8284797;28;20026;-88
2023/10/13 00:10:35;;;;;;;3.78;2.10;;;16.10;99.90;;;;;;8256534;28;20065;-88
2023/10/13 00:14:38;;;;;;;5.45;2.20;;;15.90;99.90;;;;;;8268718;28;20018;-88
2023/10/13 00:18:43;;;;;;;4.07;2.47;;;15.70;99.90;;;;;;8274317;28;20402;-89
2023/10/13 00:22:44;;;;;;;2.78;1.92;;;15.60;99.90;;;;;;8260813;28;20030;-88
2023/10/13 00:26:45;;;;;;;8.10;2.45;;;15.60;99.90;;;;;;8261303;28;20065;-88
2023/10/13 00:30:50;;;;;;;6.85;2.38;;;15.60;99.90;;;;;;8287009;28;20022;-88
2023/10/13 00:34:56;;;;;;;5.35;2.28;;;15.60;99.90;;;;;;8257487;28;20029;-89
2023/10/13 00:38:56;;;;;;;4.03;2.33;;;15.50;99.90;;;;;;8272878;28;20031;-88
2023/10/13 00:48:01;;;;;;;4.10;2.07;;;15.50;99.90;;;;;;8272935;28;20057;-89
2023/10/13 00:51:47;;;;;;;7.37;2.23;;;15.70;99.90;;;;;;8269879;28;20061;-89
2023/10/13 00:55:47;;;;;;;4.72;2.10;;;15.70;99.90;;;;;;8248731;28;20037;-89
2023/10/13 00:59:48;;;;;;;3.92;2.10;;;15.70;99.90;;;;;;8265605;28;20478;-89
2023/10/13 01:04:08;;;;;;;4.65;2.25;;;15.80;99.90;;;;;;8259020;28;20121;-89
2023/10/13 01:08:12;;;;;;;4.07;2.00;;;15.80;99.90;;;;;;8266068;28;20033;-89
2023/10/13 01:12:12;;;;;;;4.75;2.10;;;16.00;99.90;;;;;;8255938;28;20030;-90
2023/10/13 01:16:13;;;;;;;3.20;1.90;;;16.10;99.90;;;;;;8253594;28;20067;-88
2023/10/13 01:20:21;;;;;;;8.38;2.33;;;16.00;99.90;;;;;;8261709;28;20084;-88
2023/10/13 01:24:24;;;;;;;4.40;2.08;;;16.10;99.90;;;;;;8262249;28;20391;-88
2023/10/13 01:28:24;;;;;;;2.75;1.85;;;15.90;99.90;;;;;;8261463;28;20028;-89
2023/10/13 01:32:25;;;;;;;5.70;2.20;;;15.80;99.90;;;;;;8253812;28;20030;-88
2023/10/13 01:36:35;;;;;;;3.00;1.77;;;15.50;99.90;;;;;;8272515;28;20145;-89
2023/10/13 01:40:35;;;;;;;5.90;2.20;;;15.40;99.90;;;;;;8249528;28;20022;-88
2023/10/13 01:44:36;;;;;;;4.50;2.10;;;15.60;99.90;;;;;;8249823;28;20502;-89
2023/10/13 01:48:40;;;;;;;4.78;1.95;;;15.40;99.90;;;;;;8255023;28;20037;-88
2023/10/13 01:52:43;;;;;;;3.17;1.88;;;15.50;99.90;;;;;;8249862;28;20138;-88
2023/10/13 01:56:44;;;;;;;2.70;2.00;;;15.30;99.90;;;;;;8258246;28;20069;-88
2023/10/13 02:00:47;;;;;;;3.08;2.13;;;15.10;99.90;;;;;;8258766;28;20042;-88
2023/10/13 02:04:57;;;;;;;5.43;2.03;;;15.00;99.90;;;;;;8272406;28;20080;-88
2023/10/13 02:09:12;;;;;;;3.90;1.97;;;15.20;99.90;;;;;;8268020;28;21317;-87
2023/10/13 02:13:17;;;;;;;2.90;1.77;;;15.20;99.90;;;;;;8276486;28;20651;-88
2023/10/13 02:17:21;;;;;;;4.03;2.10;;;15.00;99.90;;;;;;8267090;28;20014;-88
2023/10/13 02:21:21;;;;;;;3.17;1.85;;;14.80;99.90;;;;;;8260785;28;20026;-88
2023/10/13 02:25:42;;;;;;;3.20;1.92;;;14.70;99.90;;;;;;8267498;28;20034;-88
2023/10/13 02:29:46;;;;;;;3.85;1.90;;;14.70;99.90;;;;;;8279805;28;20130;-89
2023/10/13 02:33:47;;;;;;;4.28;2.10;;;14.70;99.90;;;;;;8255795;28;20014;-89
2023/10/13 02:37:54;;;;;;;3.80;2.10;;;14.60;99.90;;;;;;8271412;28;20021;-88
2023/10/13 02:41:56;;;;;;;4.18;1.85;;;14.30;99.90;;;;;;8261167;28;20027;-88
2023/10/13 02:45:59;;;;;;;4.78;1.80;;;14.30;99.90;;;;;;8260050;28;20038;-88
2023/10/13 02:50:00;;;;;;;5.53;2.00;;;14.30;99.90;;;;;;8271753;28;20019;-88
2023/10/13 02:54:11;;;;;;;3.80;1.73;;;14.30;99.90;;;;;;8264953;28;20014;-89
2023/10/13 02:58:14;;;;;;;3.05;1.70;;;14.00;99.90;;;;;;8279271;28;20390;-88
2023/10/13 03:02:29;;;;;;;4.93;1.90;;;13.70;99.90;;;;;;8263511;28;20022;-88
2023/10/13 03:06:33;;;;;;;3.58;2.03;;;13.30;99.90;;;;;;8280583;28;20030;-88
2023/10/13 03:10:33;;;;;;;4.40;2.20;;;13.20;99.90;;;;;;8268443;28;20026;-88
2023/10/13 03:14:34;;;;;;;4.40;1.85;;;12.90;99.90;;;;;;8279556;28;20123;-89
2023/10/13 03:18:36;;;;;;;3.05;1.92;;;12.70;99.90;;;;;;8265363;28;20386;-88
2023/10/13 03:22:36;;;;;;;3.30;2.03;;;12.50;99.90;;;;;;8270958;28;20149;-88
2023/10/13 03:26:43;;;;;;;4.35;2.05;;;12.40;99.90;;;;;;8275609;28;20034;-89
2023/10/13 03:30:44;;;;;;;4.78;2.10;;;12.20;99.90;;;;;;8267414;28;20018;-89
2023/10/13 03:34:52;;;;;;;3.92;2.05;;;12.00;99.90;;;;;;8252916;28;20026;-88
2023/10/13 03:38:54;;;;;;;3.33;1.90;;;12.00;99.90;;;;;;8262672;28;20034;-88
2023/10/13 03:43:04;;;;;;;5.10;2.15;;;11.80;99.90;;;;;;8271405;28;20041;-88
2023/10/13 03:47:17;;;;;;;5.03;2.08;;;11.70;99.90;;;;;;8265933;28;20034;-88
2023/10/13 03:51:18;;;;;;;3.92;2.30;;;11.60;99.90;;;;;;8275868;28;20018;-88
2023/10/13 03:55:19;;;;;;;5.97;2.20;;;11.50;99.90;;;;;;8259826;28;20030;-88
2023/10/13 03:59:19;;;;;;;8.35;1.90;;;11.60;99.90;;;;;;8276658;28;20390;-88
2023/10/13 04:03:30;;;;;;;3.85;2.17;;;11.60;99.90;;;;;;8251895;28;20026;-88
2023/10/13 04:12:21;;;;;;;4.40;2.03;;;11.40;99.90;;;;;;8264914;28;20684;-88
2023/10/13 04:20:32;;;;;;;6.85;2.58;;;11.20;99.90;;;;;;8258606;28;20403;-88
2023/10/13 04:25:00;;;;;;;4.75;2.30;;;11.20;99.90;;;;;;8275772;28;20022;-89
2023/10/13 04:29:09;;;;;;;4.10;2.47;;;11.10;99.90;;;;;;8270832;28;20038;-88
2023/10/13 04:33:35;;;;;;;5.78;2.50;;;11.00;99.90;;;;;;8255572;28;20014;-88
2023/10/13 04:38:00;;;;;;;6.75;2.78;;;10.90;99.90;;;;;;8259367;28;20145;-89
2023/10/13 04:42:13;;;;;;;5.90;2.35;;;10.80;99.90;;;;;;8261858;28;20026;-88
2023/10/13 04:50:44;;;;;;;4.72;2.60;;;10.60;99.90;;;;;;8243576;28;20045;-89
2023/10/13 04:54:49;;;;;;;4.65;2.53;;;10.50;99.90;;;;;;8252383;28;20030;-89
2023/10/13 05:51:32;;;;;;;14.73;7.03;;;10.20;99.90;;;;;;8230763;28;20039;-88
2023/10/13 06:29:45;;;;;;;5.75;2.63;;;11.20;99.90;;;;;;8275593;28;20037;-89
2023/10/13 06:33:47;;;;;;;4.20;2.33;;;11.10;99.90;;;;;;8252721;28;20041;-89
2023/10/13 06:37:47;;;;;;;7.00;3.00;;;11.10;99.90;;;;;;8258936;28;20387;-89
2023/10/13 06:41:51;;;;;;;4.85;2.90;;;11.30;99.90;;;;;;8260769;28;20019;-89
2023/10/13 06:46:00;;;;;;;4.55;2.92;;;11.40;99.90;;;;;;8257107;28;20041;-89
2023/10/13 06:50:02;;;;;;;3.42;2.33;;;11.50;99.90;;;;;;8280165;28;20084;-89
2023/10/13 06:54:03;;;;;;;4.03;2.58;;;11.70;99.90;;;;;;8270338;28;20082;-89
2023/10/13 06:58:12;;;;;;;3.05;2.13;;;11.70;99.90;;;;;;8262403;28;20026;-90
2023/10/13 07:02:22;;;;;;;7.38;2.40;;;11.80;99.90;;;;;;8263670;28;20034;-90
2023/10/13 07:06:22;;;;;;;3.83;2.42;;;12.00;99.90;;;;;;8254405;28;20125;-89
2023/10/13 07:10:29;;;;;;;5.30;2.00;;;12.40;99.90;;;;;;8258192;28;20475;-89
2023/10/13 07:14:33;;;;;;;4.13;2.28;;;12.60;99.90;;;;;;8249207;28;20121;-89
2023/10/13 07:18:41;;;;;;;4.30;1.95;;;13.10;99.90;;;;;;8253221;28;20333;-89
2023/10/13 07:22:54;;;;;;;5.05;1.90;;;13.30;99.90;;;;;;8249687;28;20033;-89
2023/10/13 07:27:03;;;;;;;4.97;2.15;;;13.50;99.90;;;;;;8263644;28;20109;-89
2023/10/13 07:35:07;;;;;;;4.63;2.20;;;14.00;99.90;;;;;;8277515;28;20151;-90
2023/10/13 07:39:21;;;;;;;3.85;2.25;;;14.50;99.90;;;;;;8282884;28;20666;-90
2023/10/13 07:43:22;;;;;;;4.72;1.95;;;15.00;99.90;;;;;;8264374;28;20510;-89
2023/10/13 07:47:24;;;;;;;5.18;2.38;;;15.40;99.90;;;;;;8262686;28;20056;-89
2023/10/13 07:51:26;;;;;;;7.25;2.55;;;16.00;99.90;;;;;;8263196;28;20026;-89
2023/10/13 07:55:27;;;;;;;5.72;2.25;;;16.40;99.90;;;;;;8281539;28;20022;-90
2023/10/13 07:59:31;;;;;;;2.70;1.40;;;17.10;99.90;;;;;;8262602;28;20033;-89
2023/10/13 08:03:44;;;;;;;3.42;1.52;;;17.30;99.90;;;;;;8273905;28;20026;-89
2023/10/13 08:07:54;;;;;;;3.92;1.70;;;17.60;99.90;;;;;;8266926;28;20034;-89
2023/10/13 08:11:55;;;;;;;4.00;1.50;;;17.80;99.90;;;;;;8282083;28;20033;-89
2023/10/13 08:16:00;;;;;;;3.05;1.80;;;17.90;99.90;;;;;;8268615;28;20026;-89
2023/10/13 08:20:11;;;;;;;3.50;1.60;;;18.30;99.90;;;;;;8274615;28;20113;-88
2023/10/13 08:24:15;;;;;;;4.82;1.50;;;18.40;99.90;;;;;;8272380;28;20033;-89
2023/10/13 08:32:54;;;;;;;5.03;1.63;;;18.90;99.90;;;;;;8279862;28;20098;-88
2023/10/13 08:36:55;;;;;;;3.63;1.63;;;19.20;99.90;;;;;;8282877;28;20475;-89
2023/10/13 08:45:20;;;;;;;3.88;1.52;;;19.70;99.90;;;;;;8281432;28;20089;-90
2023/10/13 08:49:23;;;;;;;3.15;1.77;;;19.90;99.90;;;;;;8271001;28;20030;-89
2023/10/13 08:57:34;;;;;;;4.35;1.85;;;20.10;99.90;;;;;;8276207;28;20022;-88
2023/10/13 09:06:01;;;;;;;4.35;1.45;;;20.70;99.90;;;;;;8284114;28;20098;-86
2023/10/13 09:10:11;;;;;;;5.30;1.73;;;21.00;99.90;;;;;;8272959;28;20034;-88
2023/10/13 09:14:56;;;;;;;3.25;1.80;;;21.30;99.90;;;;;;8266779;28;20030;-88
2023/10/13 09:18:46;;;;;;;3.47;1.52;;;21.80;99.90;;;;;;8270881;28;20108;-89
2023/10/13 09:27:04;;;;;;;4.60;1.67;;;22.80;99.20;;;;;;8276821;28;20673;-87
2023/10/13 09:31:09;;;;;;;5.03;1.88;;;23.20;99.90;;;;;;8268935;28;20030;-87
2023/10/13 09:35:22;;;;;;;2.75;1.40;;;23.70;98.40;;;;;;8256861;28;20050;-87
2023/10/13 09:39:44;;;;;;;3.67;1.60;;;23.90;97.00;;;;;;8256739;28;20399;-89
2023/10/13 09:43:51;;;;;;;3.40;1.58;;;24.20;95.80;;;;;;8272022;28;20030;-89
2023/10/13 09:47:57;;;;;;;16.02;1.40;;;24.30;95.80;;;;;;8257749;28;20495;-88
2023/10/13 09:52:00;;;;;;;3.50;1.35;;;24.60;94.70;;;;;;8274265;28;20027;-87
2023/10/13 09:56:19;;;;;;;3.88;1.50;;;25.10;91.10;;;;;;8263517;28;20105;-87
2023/10/13 10:00:44;;;;;;;2.45;1.60;;;25.20;90.70;;;;;;8253908;28;20487;-88
2023/10/13 10:04:52;;;;;;;2.83;1.33;;;25.50;90.20;;;;;;8264168;28;20026;-88
2023/10/13 10:09:08;;;;;;;2.88;1.50;;;25.50;89.80;;;;;;8264255;28;20040;-89
2023/10/13 10:13:40;;;;;;;5.03;1.67;;;24.90;87.20;;;;;;8257920;28;20029;-89
2023/10/13 10:17:44;;;;;;;3.20;1.60;;;24.30;92.70;;;;;;8260751;28;20018;-89
2023/10/13 10:21:45;;;;;;;3.13;1.50;;;24.20;91.10;;;;;;8259924;28;20019;-88
2023/10/13 10:25:46;;;;;;;3.13;1.42;;;24.40;91.30;;;;;;8258239;28;20402;-90
2023/10/13 10:29:53;;;;;;;4.25;1.50;;;24.40;90.80;;;;;;8256068;28;20110;-89
2023/10/13 10:33:55;;;;;;;4.38;1.50;;;24.30;92.40;;;;;;8262586;28;20490;-89
2023/10/13 10:38:23;;;;;;;3.25;1.45;;;24.70;93.00;;;;;;8271235;28;20033;-90
2023/10/13 10:42:29;;;;;;;4.38;1.45;;;24.90;91.00;;;;;;8257260;28;20026;-89
2023/10/13 10:46:40;;;;;;;5.53;1.60;;;25.30;88.50;;;;;;8262521;28;20030;-87
2023/10/13 10:50:41;;;;;;;5.10;1.42;;;25.80;85.50;;;;;;8258357;28;20821;-89
2023/10/13 10:54:44;;;;;;;7.32;1.70;;;26.70;82.40;;;;;;8276502;28;20084;-88
2023/10/13 10:58:44;;;;;;;5.68;1.70;;;28.00;76.30;;;;;;8266389;28;20010;-87
2023/10/13 11:02:54;;;;;;;2.83;1.20;;;29.00;72.60;;;;;;8263755;28;20080;-90
2023/10/13 11:06:55;;;;;;;;;;;30.00;67.40;;;;;;8265890;28;20045;-89
2023/10/13 11:10:56;;;;;;;3.78;1.70;;;30.70;66.20;;;;;;8270906;28;19936;-89
2023/10/13 11:15:00;;;;;;;3.10;1.45;;;31.20;62.60;;;;;;8266849;28;20041;-90
2023/10/13 11:19:05;;;;;;;2.97;1.70;;;31.10;61.40;;;;;;8265737;28;20034;-90
2023/10/13 11:23:17;;;;;;;3.88;1.73;;;31.30;62.20;;;;;;8260991;28;20439;-90
2023/10/13 11:27:36;;;;;;;3.53;1.55;;;32.00;56.00;;;;;;8262312;28;20113;-90
2023/10/13 11:31:43;;;;;;;5.85;1.40;;;32.40;57.30;;;;;;8258252;28;20030;-91
2023/10/13 11:35:55;;;;;;;5.20;1.60;;;32.20;54.50;;;;;;8266492;28;20037;-88
2023/10/13 11:39:56;;;;;;;4.13;1.67;;;32.00;53.30;;;;;;8263221;28;20049;-90
2023/10/13 11:44:12;;;;;;;5.72;1.67;;;32.70;51.80;;;;;;8262652;28;20030;-88
2023/10/13 11:48:14;;;;;;;5.65;1.75;;;33.00;49.80;;;;;;8254748;28;20026;-90
2023/10/13 11:52:17;;;;;;;3.42;1.80;;;32.20;48.90;;;;;;8263546;28;20036;-89
2023/10/13 11:56:23;;;;;;;3.60;1.40;;;32.20;47.90;;;;;;8263499;28;20019;-88
2023/10/13 12:00:50;;;;;;;11.68;1.80;;;31.70;49.30;;;;;;8262378;28;20026;-90
2023/10/13 12:04:51;;;;;;;4.72;1.67;;;31.40;53.40;;;;;;8270193;28;20120;-87
2023/10/13 12:08:52;;;;;;;3.38;1.60;;;32.20;49.70;;;;;;8265470;28;20030;-89
2023/10/13 12:12:54;;;;;;;5.53;1.58;;;32.80;47.20;;;;;;8254851;28;20038;-88
2023/10/13 12:16:55;;;;;;;3.60;1.70;;;32.90;48.10;;;;;;8253456;28;20117;-89
2023/10/13 12:20:57;;;;;;;2.13;1.40;;;33.10;47.50;;;;;;8271326;28;20038;-89
2023/10/13 12:25:04;;;;;;;2.95;1.38;;;33.10;45.90;;;;;;8266888;28;20108;-89
2023/10/13 12:29:17;;;;;;;5.35;1.90;;;32.80;46.70;;;;;;8274192;28;20030;-89
2023/10/13 12:33:36;;;;;;;4.40;1.40;;;30.60;50.40;;;;;;8263891;28;20684;-90
2023/10/13 12:50:43;;;;;;;3.85;1.80;;;31.70;47.50;;;;;;8279486;28;20456;-89
2023/10/13 12:54:47;;;;;;;4.20;1.83;;;32.90;48.10;;;;;;8274426;28;20057;-88
2023/10/13 12:58:54;;;;;;;2.22;1.40;;;33.40;46.70;;;;;;8249658;28;20022;-90
2023/10/13 13:02:55;;;;;;;3.90;1.60;;;33.00;45.80;;;;;;8270501;28;20118;-88
2023/10/13 13:06:56;;;;;;;3.35;1.85;;;32.20;47.10;;;;;;8253820;28;20026;-91
2023/10/13 13:10:56;;;;;;;2.58;1.45;;;32.40;46.90;;;;;;8256074;28;20034;-89
2023/10/13 13:14:57;;;;;;;3.63;1.80;;;33.30;47.20;;;;;;8255826;28;20030;-89
2023/10/13 13:18:57;;;;;;;3.95;1.70;;;33.40;45.70;;;;;;8257367;28;20033;-89
2023/10/13 13:23:12;;;;;;;3.00;1.80;;;33.40;46.30;;;;;;8253800;28;20109;-91
2023/10/13 13:27:14;;;;;;;3.75;2.10;;;33.50;48.70;;;;;;8247786;28;20029;-91
2023/10/13 13:31:15;;;;;;;4.53;2.15;;;32.60;46.90;;;;;;8251882;28;20026;-90
2023/10/13 13:35:18;;;;;;;6.90;2.03;;;31.90;49.60;;;;;;8252448;28;20058;-89
2023/10/13 13:39:28;;;;;;;5.55;2.05;;;33.00;47.00;;;;;;8251512;28;20022;-91
2023/10/13 13:43:37;;;;;;;3.38;1.75;;;33.90;47.50;;;;;;8242884;28;20026;-90
2023/10/13 13:47:38;;;;;;;6.35;2.28;;;34.30;46.50;;;;;;8255478;28;20113;-89
2023/10/13 13:51:38;;;;;;;3.58;2.03;;;34.00;45.50;;;;;;8248838;28;20037;-89
2023/10/13 13:55:39;;;;;;;5.07;2.45;;;33.00;46.10;;;;;;8256361;28;20031;-91
2023/10/13 13:59:44;;;;;;;4.65;2.03;;;32.20;47.70;;;;;;8252009;28;20117;-91
2023/10/13 14:03:47;;;;;;;3.67;2.00;;;31.30;49.80;;;;;;8275312;28;20026;-91
2023/10/13 14:07:50;;;;;;;3.08;1.98;;;30.20;51.90;;;;;;8241236;28;20619;-92
2023/10/13 14:16:16;;;;;;;6.40;2.20;;;29.10;54.90;;;;;;8265920;28;20105;-92
2023/10/13 14:20:19;;;;;;;3.65;1.90;;;28.40;56.00;;;;;;8255119;28;21367;-90
2023/10/13 14:24:27;;;;;;;4.72;2.00;;;27.70;56.20;;;;;;8251913;28;20026;-90
2023/10/13 14:28:34;;;;;;;3.35;2.00;;;27.00;58.30;;;;;;8258236;28;20049;-91
2023/10/13 14:32:40;;;;;;;5.13;1.70;;;26.50;57.70;;;;;;8262395;28;20485;-91
2023/10/13 14:36:41;;;;;;;4.15;1.90;;;26.10;59.40;;;;;;8249609;28;20029;-91
2023/10/13 14:40:41;;;;;;;4.70;2.20;;;25.70;59.40;;;;;;8251587;28;20022;-90
2023/10/13 14:44:42;;;;;;;3.08;2.10;;;25.50;60.80;;;;;;8256128;28;20583;-88
2023/10/13 14:48:48;;;;;;;3.65;1.90;;;25.00;63.30;;;;;;8252185;28;20023;-89
2023/10/13 14:52:50;;;;;;;3.72;1.92;;;24.60;63.40;;;;;;8248288;28;20117;-89
2023/10/13 14:56:54;;;;;;;3.63;1.70;;;24.40;64.90;;;;;;8265241;28;20026;-90
2023/10/13 15:00:58;;;;;;;4.22;2.03;;;24.20;65.60;;;;;;8272672;28;20101;-91
2023/10/13 15:04:59;;;;;;;2.75;2.00;;;24.10;66.90;;;;;;8263130;28;20031;-90
2023/10/13 15:09:03;;;;;;;4.95;2.20;;;23.90;69.20;;;;;;8258530;28;20037;-90
2023/10/13 15:13:05;;;;;;;4.72;1.90;;;23.70;71.80;;;;;;8264473;28;20034;-89
2023/10/13 15:17:06;;;;;;;5.38;2.22;;;23.50;72.00;;;;;;8278629;28;20437;-89
2023/10/13 15:21:08;;;;;;;5.72;2.20;;;23.40;73.00;;;;;;8262633;28;20029;-90
2023/10/13 15:25:17;;;;;;;4.45;2.08;;;23.30;74.50;;;;;;8269529;28;20026;-89
2023/10/13 15:29:18;;;;;;;2.88;1.83;;;23.10;74.60;;;;;;8266334;28;20029;-89
2023/10/13 15:33:19;;;;;;;4.80;1.92;;;23.10;73.20;;;;;;8260300;28;20038;-89
2023/10/13 15:37:20;;;;;;;4.53;2.20;;;22.90;74.30;;;;;;8286384;28;20026;-88
2023/10/13 15:41:25;;;;;;;5.47;2.15;;;22.90;73.80;;;;;;8289976;28;20077;-86
2023/10/13 15:45:32;;;;;;;4.03;2.38;;;22.70;73.40;;;;;;8274627;28;20026;-87
2023/10/13 15:49:33;;;;;;;4.35;2.08;;;22.50;74.10;;;;;;8257704;28;20038;-88
2023/10/13 15:53:36;;;;;;;5.50;2.05;;;22.30;75.30;;;;;;8272600;28;20038;-88
2023/10/13 15:57:36;;;;;;;3.88;2.20;;;22.10;77.30;;;;;;8245050;28;20019;-88
2023/10/13 16:01:39;;;;;;;4.15;2.25;;;21.60;82.80;;;;;;8273189;28;20506;-89
2023/10/13 16:05:42;;;;;;;3.75;2.25;;;21.10;85.80;;;;;;8270319;28;20521;-88
2023/10/13 16:09:43;;;;;;;5.07;2.42;;;20.70;87.60;;;;;;8262336;28;20022;-88
2023/10/13 16:13:45;;;;;;;3.45;2.00;;;20.20;89.60;;;;;;8266469;28;20026;-89
2023/10/13 16:17:57;;;;;;;6.43;2.15;;;19.90;90.90;;;;;;8265409;28;20073;-88
2023/10/13 16:21:57;;;;;;;4.45;1.90;;;19.60;91.70;;;;;;8262886;28;20030;-88
2023/10/13 16:26:33;;;;;;;3.80;1.70;;;19.50;90.40;;;;;;8263873;28;20033;-83
2023/10/13 16:40:57;;;;;;;2.92;1.60;;;18.70;94.80;;;;;;8272018;28;20413;-84
2023/10/13 16:55:08;;;;;;;4.68;2.30;;;18.00;97.20;;;;;;8166899;29;20046;-85
2023/10/13 16:59:09;;;;;;;4.88;2.10;;;17.40;98.60;;;;;;8201023;28;20073;-86
2023/10/13 17:03:11;;;;;;;4.80;2.30;;;17.40;99.90;;;;;;8263400;28;20033;-86
2023/10/13 17:07:14;;;;;;;4.18;2.38;;;17.20;99.90;;;;;;8281599;28;20028;-86
2023/10/13 17:11:16;;;;;;;4.78;2.40;;;17.10;99.90;;;;;;8259586;28;20045;-86
2023/10/13 17:15:21;;;;;;;4.03;2.20;;;16.90;99.90;;;;;;8257777;28;20026;-86
2023/10/13 17:19:21;;;;;;;5.35;2.58;;;16.70;99.90;;;;;;8262050;28;20026;-86
2023/10/13 17:23:22;;;;;;;4.57;2.90;;;16.40;99.90;;;;;;8268006;28;20041;-86
2023/10/13 17:27:22;;;;;;;4.22;2.17;;;16.30;99.90;;;;;;8263602;28;20034;-86
2023/10/13 17:31:26;;;;;;;3.63;2.00;;;16.20;99.90;;;;;;8268075;28;20030;-87
2023/10/13 17:35:31;;;;;;;5.10;2.08;;;16.00;99.90;;;;;;8259133;28;20058;-86
2023/10/13 17:39:32;;;;;;;4.13;2.35;;;16.00;99.90;;;;;;8261675;28;20029;-86
2023/10/13 17:43:36;;;;;;;10.15;2.90;;;16.10;99.90;;;;;;8270031;28;20093;-86
2023/10/13 17:47:36;;;;;;;5.03;2.42;;;15.70;99.90;;;;;;8265488;28;20034;-86
2023/10/13 17:51:37;;;;;;;3.53;2.50;;;15.60;99.90;;;;;;8258335;28;20027;-86
2023/10/13 17:55:40;;;;;;;5.25;3.50;;;15.30;99.90;;;;;;8297435;28;20083;-86
2023/10/13 17:59:44;;;;;;;14.40;6.93;;;15.10;99.90;;;;;;8269236;28;20041;-87
2023/10/13 18:03:49;;;;;;;21.20;10.27;;;14.70;99.90;;;;;;8272265;28;20084;-87
2023/10/13 18:07:49;;;;;;;20.05;9.02;;;14.50;99.90;;;;;;8289841;28;20084;-87
2023/10/13 18:11:50;;;;;;;17.95;8.38;;;14.20;99.90;;;;;;8287107;28;20036;-86
2023/10/13 18:15:51;;;;;;;21.88;10.32;;;14.10;99.90;;;;;;8270819;28;20026;-86
2023/10/13 18:19:51;;;;;;;14.60;7.40;;;14.00;99.90;;;;;;8269248;28;20035;-86
2023/10/13 18:23:54;;;;;;;10.65;4.78;;;13.90;99.90;;;;;;8270586;28;20174;-86
2023/10/13 18:27:55;;;;;;;5.82;2.63;;;13.80;99.90;;;;;;8269327;28;20042;-87
2023/10/13 18:31:55;;;;;;;4.90;2.42;;;13.80;99.90;;;;;;8280302;28;20057;-86
2023/10/13 18:35:56;;;;;;;3.65;2.15;;;13.80;99.90;;;;;;8266416;28;20092;-87
2023/10/13 18:39:56;;;;;;;5.22;2.08;;;13.70;99.90;;;;;;8271517;28;20029;-86
2023/10/13 18:43:58;;;;;;;3.20;1.73;;;14.10;99.90;;;;;;8267162;28;20040;-87
2023/10/13 18:47:58;;;;;;;3.15;1.77;;;15.00;99.90;;;;;;8290586;28;20030;-86
2023/10/13 18:51:59;;;;;;;3.67;1.73;;;15.50;99.90;;;;;;8261691;28;20022;-85
2023/10/13 18:56:20;;;;;;;4.75;1.80;;;16.30;99.90;;;;;;8272754;28;20502;-86
2023/10/13 19:00:22;;;;;;;6.47;2.05;;;16.90;99.90;;;;;;8271757;28;20022;-86
2023/10/13 19:04:23;;;;;;;7.95;2.10;;;17.20;99.90;;;;;;8282044;28;20026;-86
2023/10/13 19:08:24;;;;;;;3.63;1.88;;;17.30;99.90;;;;;;8262441;28;20032;-86
2023/10/13 19:12:25;;;;;;;3.22;1.88;;;17.10;99.90;;;;;;8291707;28;20038;-86
2023/10/13 19:16:25;;;;;;;3.25;1.70;;;17.00;99.90;;;;;;8269330;28;20014;-86
2023/10/13 19:20:29;;;;;;;3.78;1.98;;;16.90;99.90;;;;;;8274151;28;20018;-86
2023/10/13 19:24:33;;;;;;;3.92;1.98;;;16.80;99.90;;;;;;8258577;28;20030;-86
2023/10/13 19:28:34;;;;;;;2.65;1.75;;;16.70;99.90;;;;;;8263810;28;20034;-86
2023/10/13 19:32:38;;;;;;;3.17;1.65;;;16.80;99.90;;;;;;8264407;28;20061;-87
2023/10/13 19:36:39;;;;;;;5.90;1.85;;;16.90;99.90;;;;;;8264592;28;20035;-87
2023/10/13 19:40:41;;;;;;;2.95;1.73;;;16.90;99.90;;;;;;8269116;28;20034;-85
2023/10/13 19:44:43;;;;;;;2.58;1.58;;;16.80;99.90;;;;;;8259116;28;20022;-86
2023/10/13 19:48:45;;;;;;;3.28;1.98;;;16.80;99.90;;;;;;8248515;28;20034;-86
2023/10/13 19:52:46;;;;;;;3.63;1.60;;;16.50;99.90;;;;;;8252561;28;20033;-86
2023/10/13 19:56:46;;;;;;;4.22;1.90;;;16.20;99.90;;;;;;8264022;28;20104;-85
2023/10/13 20:00:54;;;;;;;5.28;1.73;;;16.20;99.90;;;;;;8256947;28;20517;-86
2023/10/13 20:04:56;;;;;;;2.50;1.52;;;16.40;99.90;;;;;;8263148;28;20026;-86
2023/10/13 20:08:58;;;;;;;3.60;2.05;;;16.40;99.90;;;;;;8258577;28;20026;-86
2023/10/13 20:13:01;;;;;;;4.00;1.60;;;16.40;99.90;;;;;;8250263;28;20097;-86
2023/10/13 20:17:01;;;;;;;5.10;1.63;;;16.60;99.90;;;;;;8275212;28;20026;-85
2023/10/13 20:21:05;;;;;;;4.05;2.00;;;17.30;99.90;;;;;;8277972;28;20022;-84
2023/10/13 20:25:07;;;;;;;2.67;1.60;;;17.90;99.90;;;;;;8252645;28;20861;-85
2023/10/13 20:29:15;;;;;;;3.15;1.65;;;18.10;99.90;;;;;;8262835;28;20033;-86
2023/10/13 20:33:20;;;;;;;2.92;1.70;;;18.30;99.90;;;;;;8261141;28;20109;-84
2023/10/13 20:37:21;;;;;;;3.65;1.80;;;18.50;99.90;;;;;;8274843;28;20486;-86
2023/10/13 20:41:21;;;;;;;2.53;1.85;;;18.50;99.90;;;;;;8278210;28;20088;-85
2023/10/13 20:45:22;;;;;;;3.47;1.80;;;18.50;99.90;;;;;;8261736;28;20041;-85
2023/10/13 20:49:23;;;;;;;5.55;2.13;;;18.40;99.90;;;;;;8262344;28;20022;-85
2023/10/13 20:53:26;;;;;;;5.45;1.42;;;18.30;99.90;;;;;;8269751;28;20510;-86
2023/10/13 20:57:28;;;;;;;5.88;2.20;;;18.10;99.90;;;;;;8279608;28;20109;-85
2023/10/13 21:01:32;;;;;;;3.85;1.92;;;17.90;99.90;;;;;;8258940;28;20460;-85
2023/10/13 21:05:32;;;;;;;3.00;1.83;;;17.60;99.90;;;;;;8261001;28;20026;-84
2023/10/13 21:09:33;;;;;;;2.25;1.65;;;17.50;99.90;;;;;;8276438;28;20068;-85
2023/10/13 21:13:34;;;;;;;2.70;1.65;;;17.50;99.90;;;;;;8260633;28;20608;-85
2023/10/13 21:17:35;;;;;;;3.65;1.95;;;17.80;99.90;;;;;;8252468;28;20033;-85
2023/10/13 21:21:36;;;;;;;6.13;2.05;;;17.90;99.90;;;;;;8258021;28;20042;-85
2023/10/13 21:25:40;;;;;;;5.28;1.70;;;18.00;99.90;;;;;;8270572;28;20029;-87
2023/10/13 21:29:41;;;;;;;3.45;1.88;;;18.20;99.90;;;;;;8256934;28;20028;-85
2023/10/13 21:34:05;;;;;;;4.05;1.85;;;18.30;99.90;;;;;;8265949;28;20479;-85
2023/10/13 21:38:09;;;;;;;2.35;1.80;;;18.30;99.90;;;;;;8257330;28;20081;-85
2023/10/13 21:42:11;;;;;;;3.30;2.10;;;18.30;99.90;;;;;;8283904;28;20030;-85
2023/10/13 21:46:17;;;;;;;5.47;2.50;;;18.20;99.90;;;;;;8256090;28;20054;-86
2023/10/13 21:50:20;;;;;;;3.78;2.05;;;18.30;99.90;;;;;;8250864;28;20529;-85
2023/10/13 21:54:20;;;;;;;3.95;2.00;;;18.30;99.90;;;;;;8261685;28;20085;-85
2023/10/13 21:58:22;;;;;;;5.68;2.13;;;18.30;99.90;;;;;;8259569;28;20021;-85
2023/10/13 22:02:23;;;;;;;2.17;1.90;;;18.30;99.90;;;;;;8272372;28;20437;-85
2023/10/13 22:06:25;;;;;;;4.00;1.92;;;18.30;99.90;;;;;;8284394;28;20096;-84
2023/10/13 22:10:26;;;;;;;4.72;2.08;;;18.30;99.90;;;;;;8261173;28;20053;-86
2023/10/13 22:14:26;;;;;;;4.53;2.05;;;18.40;99.90;;;;;;8269999;28;20030;-85
2023/10/13 22:18:27;;;;;;;4.45;2.13;;;18.50;99.90;;;;;;8262909;28;20025;-86
2023/10/13 22:22:28;;;;;;;3.85;2.00;;;18.60;99.90;;;;;;8276081;28;20030;-85
2023/10/13 22:26:32;;;;;;;3.35;2.20;;;18.60;99.90;;;;;;8259384;28;20639;-85
2023/10/13 22:30:34;;;;;;;2.75;2.05;;;18.60;99.90;;;;;;8254713;28;20506;-85
2023/10/13 22:34:34;;;;;;;3.70;1.80;;;18.60;99.90;;;;;;8273200;28;20114;-85
2023/10/13 22:38:36;;;;;;;5.30;2.20;;;18.50;99.90;;;;;;8270485;28;20483;-86
2023/10/13 22:42:36;;;;;;;3.45;2.17;;;18.50;99.90;;;;;;8257467;28;20042;-85
2023/10/13 22:46:38;;;;;;;4.75;2.20;;;18.50;99.90;;;;;;8292199;28;20394;-85
2023/10/13 22:50:38;;;;;;;3.35;2.00;;;18.50;99.90;;;;;;8268818;28;20029;-86
2023/10/13 22:54:41;;;;;;;5.68;2.42;;;18.40;99.90;;;;;;8258378;28;20034;-85
2023/10/13 22:58:43;;;;;;;5.40;2.47;;;18.50;99.90;;;;;;8268535;28;20126;-87
2023/10/13 23:02:48;;;;;;;3.83;2.20;;;18.60;99.90;;;;;;8255984;28;20018;-85
2023/10/13 23:06:49;;;;;;;6.07;2.50;;;18.50;99.90;;;;;;8258537;28;20117;-85
2023/10/13 23:10:51;;;;;;;5.65;2.60;;;18.50;99.90;;;;;;8269120;28;20038;-87
2023/10/13 23:14:52;;;;;;;4.07;2.25;;;18.50;99.90;;;;;;8263598;28;20018;-84
2023/10/13 23:18:55;;;;;;;5.35;2.30;;;18.50;99.90;;;;;;8269288;28;20041;-85
2023/10/13 23:22:56;;;;;;;3.30;2.13;;;18.50;99.90;;;;;;8252921;28;20446;-84
2023/10/13 23:26:57;;;;;;;5.60;2.10;;;18.60;99.90;;;;;;8268285;28;20022;-84
2023/10/13 23:30:59;;;;;;;5.20;2.50;;;18.60;99.90;;;;;;8266765;28;20030;-86
2023/10/13 23:35:00;;;;;;;2.55;2.10;;;18.60;99.90;;;;;;8262648;28;20026;-85
2023/10/13 23:39:09;;;;;;;3.42;2.38;;;18.40;99.90;;;;;;8260823;28;20120;-85
2023/10/13 23:43:21;;;;;;;6.35;2.78;;;18.40;99.90;;;;;;8278343;28;20018;-84
2023/10/13 23:47:27;;;;;;;4.13;2.28;;;18.30;99.90;;;;;;8255400;28;20027;-85
2023/10/13 23:51:28;;;;;;;5.25;2.45;;;18.40;99.90;;;;;;8277409;28;20022;-85
2023/10/13 23:55:32;;;;;;;3.40;2.28;;;18.30;99.90;;;;;;8262111;28;20382;-85
2023/10/13 23:59:40;;;;;;;3.90;2.25;;;18.40;99.90;;;;;;8259148;28;20446;-85
